sensor_id;sensor_type;location;lat;lon;timestamp;P1;durP1;ratioP1;P2;durP2;ratioP2
38117;SDS011;23928;47.562;7.508;2022-11-14T00:02:24;17.50;;;10.97;;
38117;SDS011;23928;47.562;7.508;2022-11-14T00:04:49;23.73;;;14.60;;
38117;SDS011;23928;47.562;7.508;2022-11-14T00:07:15;24.00;;;15.40;;
38117;SDS011;23928;47.562;7.508;2022-11-14T00:09:40;21.13;;;12.83;;
38117;SDS011;23928;47.562;7.508;2022-11-14T00:12:10;19.53;;;12.33;;
38117;SDS011;23928;47.562;7.508;2022-11-14T00:14:36;22.73;;;12.53;;
38117;SDS011;23928;47.562;7.508;2022-11-14T00:17:03;19.67;;;12.37;;
38117;SDS011;23928;47.562;7.508;2022-11-14T00:19:29;19.60;;;12.90;;
38117;SDS011;23928;47.562;7.508;2022-11-14T00:21:55;19.10;;;12.40;;
38117;SDS011;23928;47.562;7.508;2022-11-14T00:24:20;19.03;;;12.33;;
38117;SDS011;23928;47.562;7.508;2022-11-14T00:26:46;15.17;;;10.67;;
38117;SDS011;23928;47.562;7.508;2022-11-14T00:29:13;15.67;;;9.40;;
38117;SDS011;23928;47.562;7.508;2022-11-14T00:31:39;15.53;;;10.10;;
38117;SDS011;23928;47.562;7.508;2022-11-14T00:34:06;13.67;;;8.70;;
38117;SDS011;23928;47.562;7.508;2022-11-14T00:36:31;13.60;;;8.53;;
38117;SDS011;23928;47.562;7.508;2022-11-14T00:38:57;12.63;;;8.30;;
38117;SDS011;23928;47.562;7.508;2022-11-14T00:41:23;9.33;;;6.77;;
38117;SDS011;23928;47.562;7.508;2022-11-14T00:43:49;10.90;;;7.60;;
38117;SDS011;23928;47.562;7.508;2022-11-14T00:46:15;10.00;;;7.17;;
38117;SDS011;23928;47.562;7.508;2022-11-14T00:48:40;12.23;;;7.27;;
38117;SDS011;23928;47.562;7.508;2022-11-14T00:51:06;11.20;;;7.90;;
38117;SDS011;23928;47.562;7.508;2022-11-14T00:53:32;13.17;;;8.70;;
38117;SDS011;23928;47.562;7.508;2022-11-14T00:55:58;13.67;;;9.53;;
38117;SDS011;23928;47.562;7.508;2022-11-14T00:58:23;17.13;;;10.27;;
38117;SDS011;23928;47.562;7.508;2022-11-14T01:00:49;14.13;;;9.00;;
38117;SDS011;23928;47.562;7.508;2022-11-14T01:03:16;13.23;;;8.63;;
38117;SDS011;23928;47.562;7.508;2022-11-14T01:05:42;12.07;;;8.27;;
38117;SDS011;23928;47.562;7.508;2022-11-14T01:08:09;10.83;;;7.20;;
38117;SDS011;23928;47.562;7.508;2022-11-14T01:10:39;11.53;;;8.07;;
38117;SDS011;23928;47.562;7.508;2022-11-14T01:13:05;9.93;;;6.83;;
38117;SDS011;23928;47.562;7.508;2022-11-14T01:15:31;10.37;;;7.07;;
38117;SDS011;23928;47.562;7.508;2022-11-14T01:17:58;13.07;;;8.00;;
38117;SDS011;23928;47.562;7.508;2022-11-14T01:20:24;9.60;;;6.93;;
38117;SDS011;23928;47.562;7.508;2022-11-14T01:22:49;9.00;;;7.00;;
38117;SDS011;23928;47.562;7.508;2022-11-14T01:25:15;11.03;;;8.20;;
38117;SDS011;23928;47.562;7.508;2022-11-14T01:27:41;9.87;;;7.10;;
38117;SDS011;23928;47.562;7.508;2022-11-14T01:30:06;11.67;;;7.77;;
38117;SDS011;23928;47.562;7.508;2022-11-14T01:32:32;12.60;;;8.10;;
38117;SDS011;23928;47.562;7.508;2022-11-14T01:34:58;9.63;;;6.70;;
38117;SDS011;23928;47.562;7.508;2022-11-14T01:37:23;12.47;;;8.03;;
38117;SDS011;23928;47.562;7.508;2022-11-14T01:39:49;16.90;;;9.90;;
38117;SDS011;23928;47.562;7.508;2022-11-14T01:42:14;14.87;;;8.90;;
38117;SDS011;23928;47.562;7.508;2022-11-14T01:44:43;13.00;;;8.53;;
38117;SDS011;23928;47.562;7.508;2022-11-14T01:47:15;10.30;;;7.17;;
38117;SDS011;23928;47.562;7.508;2022-11-14T01:49:46;11.50;;;7.67;;
38117;SDS011;23928;47.562;7.508;2022-11-14T01:52:22;12.57;;;7.97;;
38117;SDS011;23928;47.562;7.508;2022-11-14T01:54:53;12.10;;;8.17;;
38117;SDS011;23928;47.562;7.508;2022-11-14T01:57:24;11.77;;;8.10;;
38117;SDS011;23928;47.562;7.508;2022-11-14T01:59:53;13.90;;;8.93;;
38117;SDS011;23928;47.562;7.508;2022-11-14T02:02:23;10.73;;;7.60;;
38117;SDS011;23928;47.562;7.508;2022-11-14T02:05:12;12.37;;;9.07;;
38117;SDS011;23928;47.562;7.508;2022-11-14T02:07:39;13.27;;;8.03;;
38117;SDS011;23928;47.562;7.508;2022-11-14T02:10:13;8.50;;;6.23;;
38117;SDS011;23928;47.562;7.508;2022-11-14T02:12:40;9.80;;;6.67;;
38117;SDS011;23928;47.562;7.508;2022-11-14T02:15:06;15.17;;;8.83;;
38117;SDS011;23928;47.562;7.508;2022-11-14T02:17:33;12.10;;;8.30;;
38117;SDS011;23928;47.562;7.508;2022-11-14T02:22:34;17.80;;;9.57;;
38117;SDS011;23928;47.562;7.508;2022-11-14T02:24:59;13.57;;;8.93;;
38117;SDS011;23928;47.562;7.508;2022-11-14T02:27:25;14.87;;;8.97;;
38117;SDS011;23928;47.562;7.508;2022-11-14T02:29:51;15.67;;;8.40;;
38117;SDS011;23928;47.562;7.508;2022-11-14T02:32:17;13.87;;;9.00;;
38117;SDS011;23928;47.562;7.508;2022-11-14T02:34:43;11.47;;;8.40;;
38117;SDS011;23928;47.562;7.508;2022-11-14T02:37:08;12.83;;;8.97;;
38117;SDS011;23928;47.562;7.508;2022-11-14T02:39:34;12.13;;;8.83;;
38117;SDS011;23928;47.562;7.508;2022-11-14T02:41:59;10.67;;;8.10;;
38117;SDS011;23928;47.562;7.508;2022-11-14T02:44:25;13.40;;;8.30;;
38117;SDS011;23928;47.562;7.508;2022-11-14T02:46:51;18.47;;;10.10;;
38117;SDS011;23928;47.562;7.508;2022-11-14T02:49:16;10.60;;;7.47;;
38117;SDS011;23928;47.562;7.508;2022-11-14T02:51:42;12.83;;;8.20;;
38117;SDS011;23928;47.562;7.508;2022-11-14T02:54:07;15.30;;;9.27;;
38117;SDS011;23928;47.562;7.508;2022-11-14T02:56:33;14.40;;;9.10;;
38117;SDS011;23928;47.562;7.508;2022-11-14T02:58:59;18.80;;;10.00;;
38117;SDS011;23928;47.562;7.508;2022-11-14T03:01:25;18.20;;;10.20;;
38117;SDS011;23928;47.562;7.508;2022-11-14T03:03:50;17.97;;;10.13;;
38117;SDS011;23928;47.562;7.508;2022-11-14T03:06:16;21.87;;;11.40;;
38117;SDS011;23928;47.562;7.508;2022-11-14T03:08:42;18.73;;;11.17;;
38117;SDS011;23928;47.562;7.508;2022-11-14T03:11:07;22.47;;;11.97;;
38117;SDS011;23928;47.562;7.508;2022-11-14T03:13:34;26.33;;;12.50;;
38117;SDS011;23928;47.562;7.508;2022-11-14T03:16:06;25.33;;;12.40;;
38117;SDS011;23928;47.562;7.508;2022-11-14T03:18:34;21.60;;;10.97;;
38117;SDS011;23928;47.562;7.508;2022-11-14T03:23:39;19.20;;;10.50;;
38117;SDS011;23928;47.562;7.508;2022-11-14T03:26:06;20.90;;;10.87;;
38117;SDS011;23928;47.562;7.508;2022-11-14T03:28:33;18.83;;;10.70;;
38117;SDS011;23928;47.562;7.508;2022-11-14T03:30:59;18.20;;;10.57;;
38117;SDS011;23928;47.562;7.508;2022-11-14T03:33:25;19.53;;;11.13;;
38117;SDS011;23928;47.562;7.508;2022-11-14T03:35:51;18.13;;;10.63;;
38117;SDS011;23928;47.562;7.508;2022-11-14T03:38:17;15.93;;;10.30;;
38117;SDS011;23928;47.562;7.508;2022-11-14T03:40:47;16.40;;;10.43;;
38117;SDS011;23928;47.562;7.508;2022-11-14T03:43:13;13.60;;;9.03;;
38117;SDS011;23928;47.562;7.508;2022-11-14T03:45:39;17.80;;;10.50;;
38117;SDS011;23928;47.562;7.508;2022-11-14T03:48:05;17.63;;;10.20;;
38117;SDS011;23928;47.562;7.508;2022-11-14T03:50:31;16.77;;;9.87;;
38117;SDS011;23928;47.562;7.508;2022-11-14T03:52:57;14.57;;;9.50;;
38117;SDS011;23928;47.562;7.508;2022-11-14T03:55:22;18.20;;;11.73;;
38117;SDS011;23928;47.562;7.508;2022-11-14T03:57:48;17.17;;;9.93;;
38117;SDS011;23928;47.562;7.508;2022-11-14T04:00:14;12.50;;;8.47;;
38117;SDS011;23928;47.562;7.508;2022-11-14T04:02:40;15.43;;;9.43;;
38117;SDS011;23928;47.562;7.508;2022-11-14T04:05:05;14.97;;;9.90;;
38117;SDS011;23928;47.562;7.508;2022-11-14T04:07:31;18.23;;;10.57;;
38117;SDS011;23928;47.562;7.508;2022-11-14T04:09:57;18.17;;;10.70;;
38117;SDS011;23928;47.562;7.508;2022-11-14T04:12:22;14.23;;;9.57;;
38117;SDS011;23928;47.562;7.508;2022-11-14T04:14:48;18.83;;;11.00;;
38117;SDS011;23928;47.562;7.508;2022-11-14T04:17:13;16.33;;;10.43;;
38117;SDS011;23928;47.562;7.508;2022-11-14T04:19:39;14.67;;;9.93;;
38117;SDS011;23928;47.562;7.508;2022-11-14T04:22:05;18.03;;;10.43;;
38117;SDS011;23928;47.562;7.508;2022-11-14T04:24:30;15.63;;;10.03;;
38117;SDS011;23928;47.562;7.508;2022-11-14T04:26:56;18.37;;;11.37;;
38117;SDS011;23928;47.562;7.508;2022-11-14T04:29:21;17.80;;;10.53;;
38117;SDS011;23928;47.562;7.508;2022-11-14T04:31:47;18.47;;;10.87;;
38117;SDS011;23928;47.562;7.508;2022-11-14T04:34:13;16.87;;;10.93;;
38117;SDS011;23928;47.562;7.508;2022-11-14T04:36:38;20.47;;;11.37;;
38117;SDS011;23928;47.562;7.508;2022-11-14T04:39:04;16.03;;;10.07;;
38117;SDS011;23928;47.562;7.508;2022-11-14T04:41:29;21.27;;;11.63;;
38117;SDS011;23928;47.562;7.508;2022-11-14T04:43:55;16.93;;;10.53;;
38117;SDS011;23928;47.562;7.508;2022-11-14T04:46:21;20.27;;;11.33;;
38117;SDS011;23928;47.562;7.508;2022-11-14T04:48:46;18.83;;;10.63;;
38117;SDS011;23928;47.562;7.508;2022-11-14T04:51:12;16.77;;;10.77;;
38117;SDS011;23928;47.562;7.508;2022-11-14T04:53:37;18.23;;;11.17;;
38117;SDS011;23928;47.562;7.508;2022-11-14T04:56:03;16.50;;;10.33;;
38117;SDS011;23928;47.562;7.508;2022-11-14T04:58:29;19.13;;;11.93;;
38117;SDS011;23928;47.562;7.508;2022-11-14T05:00:55;16.17;;;10.67;;
38117;SDS011;23928;47.562;7.508;2022-11-14T05:03:22;18.60;;;10.97;;
38117;SDS011;23928;47.562;7.508;2022-11-14T05:05:48;16.33;;;10.30;;
38117;SDS011;23928;47.562;7.508;2022-11-14T05:08:13;17.47;;;10.70;;
38117;SDS011;23928;47.562;7.508;2022-11-14T05:10:42;16.87;;;10.30;;
38117;SDS011;23928;47.562;7.508;2022-11-14T05:13:09;17.33;;;10.77;;
38117;SDS011;23928;47.562;7.508;2022-11-14T05:15:35;17.23;;;9.90;;
38117;SDS011;23928;47.562;7.508;2022-11-14T05:18:01;16.87;;;10.13;;
38117;SDS011;23928;47.562;7.508;2022-11-14T05:20:27;16.33;;;9.83;;
38117;SDS011;23928;47.562;7.508;2022-11-14T05:22:53;15.40;;;9.70;;
38117;SDS011;23928;47.562;7.508;2022-11-14T05:25:20;16.00;;;9.73;;
38117;SDS011;23928;47.562;7.508;2022-11-14T05:27:46;15.90;;;10.03;;
38117;SDS011;23928;47.562;7.508;2022-11-14T05:30:12;19.27;;;10.50;;
38117;SDS011;23928;47.562;7.508;2022-11-14T05:32:38;18.17;;;10.50;;
38117;SDS011;23928;47.562;7.508;2022-11-14T05:35:04;16.23;;;10.77;;
38117;SDS011;23928;47.562;7.508;2022-11-14T05:37:30;15.20;;;9.90;;
38117;SDS011;23928;47.562;7.508;2022-11-14T05:39:56;14.27;;;9.30;;
38117;SDS011;23928;47.562;7.508;2022-11-14T05:42:21;20.50;;;10.67;;
38117;SDS011;23928;47.562;7.508;2022-11-14T05:44:47;18.33;;;10.50;;
38117;SDS011;23928;47.562;7.508;2022-11-14T05:47:12;18.80;;;10.30;;
38117;SDS011;23928;47.562;7.508;2022-11-14T05:49:38;17.37;;;11.30;;
38117;SDS011;23928;47.562;7.508;2022-11-14T05:52:03;20.37;;;14.30;;
38117;SDS011;23928;47.562;7.508;2022-11-14T05:54:29;31.43;;;15.13;;
38117;SDS011;23928;47.562;7.508;2022-11-14T05:56:55;20.17;;;11.97;;
38117;SDS011;23928;47.562;7.508;2022-11-14T05:59:20;17.77;;;11.40;;
38117;SDS011;23928;47.562;7.508;2022-11-14T06:01:46;18.73;;;11.03;;
38117;SDS011;23928;47.562;7.508;2022-11-14T06:04:12;17.87;;;11.73;;
38117;SDS011;23928;47.562;7.508;2022-11-14T06:06:39;18.50;;;10.93;;
38117;SDS011;23928;47.562;7.508;2022-11-14T06:09:05;16.60;;;10.83;;
38117;SDS011;23928;47.562;7.508;2022-11-14T06:11:31;18.27;;;11.43;;
38117;SDS011;23928;47.562;7.508;2022-11-14T06:13:56;23.63;;;15.13;;
38117;SDS011;23928;47.562;7.508;2022-11-14T06:16:22;24.27;;;13.57;;
38117;SDS011;23928;47.562;7.508;2022-11-14T06:18:48;24.83;;;15.07;;
38117;SDS011;23928;47.562;7.508;2022-11-14T06:21:18;25.17;;;14.23;;
38117;SDS011;23928;47.562;7.508;2022-11-14T06:23:45;22.23;;;14.13;;
38117;SDS011;23928;47.562;7.508;2022-11-14T06:26:14;22.93;;;14.03;;
38117;SDS011;23928;47.562;7.508;2022-11-14T06:28:40;23.20;;;14.37;;
38117;SDS011;23928;47.562;7.508;2022-11-14T06:31:06;22.27;;;14.60;;
38117;SDS011;23928;47.562;7.508;2022-11-14T06:33:33;20.60;;;12.47;;
38117;SDS011;23928;47.562;7.508;2022-11-14T06:36:00;20.43;;;13.33;;
38117;SDS011;23928;47.562;7.508;2022-11-14T06:38:27;22.57;;;14.07;;
38117;SDS011;23928;47.562;7.508;2022-11-14T06:41:04;20.20;;;12.67;;
38117;SDS011;23928;47.562;7.508;2022-11-14T06:43:39;19.00;;;11.93;;
38117;SDS011;23928;47.562;7.508;2022-11-14T06:46:06;15.13;;;11.03;;
38117;SDS011;23928;47.562;7.508;2022-11-14T06:48:33;19.67;;;12.30;;
38117;SDS011;23928;47.562;7.508;2022-11-14T06:50:59;16.57;;;11.17;;
38117;SDS011;23928;47.562;7.508;2022-11-14T06:53:26;20.83;;;11.57;;
38117;SDS011;23928;47.562;7.508;2022-11-14T06:55:53;18.03;;;11.30;;
38117;SDS011;23928;47.562;7.508;2022-11-14T06:58:20;17.40;;;11.13;;
38117;SDS011;23928;47.562;7.508;2022-11-14T07:00:46;15.83;;;10.87;;
38117;SDS011;23928;47.562;7.508;2022-11-14T07:03:11;17.20;;;10.77;;
38117;SDS011;23928;47.562;7.508;2022-11-14T07:05:37;16.10;;;10.67;;
38117;SDS011;23928;47.562;7.508;2022-11-14T07:08:02;15.73;;;10.60;;
38117;SDS011;23928;47.562;7.508;2022-11-14T07:10:28;17.00;;;10.03;;
38117;SDS011;23928;47.562;7.508;2022-11-14T07:12:54;16.07;;;10.30;;
38117;SDS011;23928;47.562;7.508;2022-11-14T07:15:19;16.80;;;9.60;;
38117;SDS011;23928;47.562;7.508;2022-11-14T07:17:45;15.87;;;9.83;;
38117;SDS011;23928;47.562;7.508;2022-11-14T07:20:12;16.20;;;10.37;;
38117;SDS011;23928;47.562;7.508;2022-11-14T07:22:39;16.63;;;9.93;;
38117;SDS011;23928;47.562;7.508;2022-11-14T07:25:05;18.17;;;10.37;;
38117;SDS011;23928;47.562;7.508;2022-11-14T07:27:31;21.17;;;11.83;;
38117;SDS011;23928;47.562;7.508;2022-11-14T07:29:56;20.03;;;11.13;;
38117;SDS011;23928;47.562;7.508;2022-11-14T07:32:22;17.27;;;10.70;;
38117;SDS011;23928;47.562;7.508;2022-11-14T07:34:47;18.57;;;10.90;;
38117;SDS011;23928;47.562;7.508;2022-11-14T07:37:13;20.83;;;12.27;;
38117;SDS011;23928;47.562;7.508;2022-11-14T07:39:39;19.80;;;10.67;;
38117;SDS011;23928;47.562;7.508;2022-11-14T07:42:04;18.73;;;11.10;;
38117;SDS011;23928;47.562;7.508;2022-11-14T07:44:30;20.40;;;11.60;;
38117;SDS011;23928;47.562;7.508;2022-11-14T07:46:55;17.43;;;10.93;;
38117;SDS011;23928;47.562;7.508;2022-11-14T07:49:21;21.07;;;11.77;;
38117;SDS011;23928;47.562;7.508;2022-11-14T07:51:46;17.07;;;11.27;;
38117;SDS011;23928;47.562;7.508;2022-11-14T07:54:12;16.37;;;10.10;;
38117;SDS011;23928;47.562;7.508;2022-11-14T07:56:38;14.40;;;9.37;;
38117;SDS011;23928;47.562;7.508;2022-11-14T07:59:03;18.67;;;10.63;;
38117;SDS011;23928;47.562;7.508;2022-11-14T08:01:29;16.67;;;9.57;;
38117;SDS011;23928;47.562;7.508;2022-11-14T08:03:55;16.70;;;10.13;;
38117;SDS011;23928;47.562;7.508;2022-11-14T08:06:20;17.70;;;10.63;;
38117;SDS011;23928;47.562;7.508;2022-11-14T08:08:46;18.53;;;11.73;;
38117;SDS011;23928;47.562;7.508;2022-11-14T08:11:11;18.10;;;11.47;;
38117;SDS011;23928;47.562;7.508;2022-11-14T08:13:37;19.77;;;13.97;;
38117;SDS011;23928;47.562;7.508;2022-11-14T08:16:06;23.50;;;14.90;;
38117;SDS011;23928;47.562;7.508;2022-11-14T08:18:34;25.80;;;14.60;;
38117;SDS011;23928;47.562;7.508;2022-11-14T08:21:02;22.83;;;14.00;;
38117;SDS011;23928;47.562;7.508;2022-11-14T08:23:28;21.87;;;13.17;;
38117;SDS011;23928;47.562;7.508;2022-11-14T08:25:54;22.43;;;14.63;;
38117;SDS011;23928;47.562;7.508;2022-11-14T08:28:21;18.73;;;12.87;;
38117;SDS011;23928;47.562;7.508;2022-11-14T08:30:47;20.80;;;12.43;;
38117;SDS011;23928;47.562;7.508;2022-11-14T08:33:13;19.73;;;12.30;;
38117;SDS011;23928;47.562;7.508;2022-11-14T08:35:38;25.57;;;11.70;;
38117;SDS011;23928;47.562;7.508;2022-11-14T08:38:04;19.13;;;11.93;;
38117;SDS011;23928;47.562;7.508;2022-11-14T08:40:29;18.07;;;11.53;;
38117;SDS011;23928;47.562;7.508;2022-11-14T08:42:59;20.57;;;10.93;;
38117;SDS011;23928;47.562;7.508;2022-11-14T08:45:26;18.10;;;10.00;;
38117;SDS011;23928;47.562;7.508;2022-11-14T08:47:52;15.70;;;10.60;;
38117;SDS011;23928;47.562;7.508;2022-11-14T08:50:18;14.77;;;9.93;;
38117;SDS011;23928;47.562;7.508;2022-11-14T08:52:47;17.63;;;10.37;;
38117;SDS011;23928;47.562;7.508;2022-11-14T08:55:14;14.50;;;9.63;;
38117;SDS011;23928;47.562;7.508;2022-11-14T08:57:40;19.43;;;10.77;;
38117;SDS011;23928;47.562;7.508;2022-11-14T09:00:06;15.03;;;9.47;;
38117;SDS011;23928;47.562;7.508;2022-11-14T09:02:32;17.90;;;10.53;;
38117;SDS011;23928;47.562;7.508;2022-11-14T09:04:58;19.00;;;11.43;;
38117;SDS011;23928;47.562;7.508;2022-11-14T09:07:24;18.73;;;12.00;;
38117;SDS011;23928;47.562;7.508;2022-11-14T09:09:49;18.93;;;11.63;;
38117;SDS011;23928;47.562;7.508;2022-11-14T09:12:15;18.73;;;11.53;;
38117;SDS011;23928;47.562;7.508;2022-11-14T09:14:41;19.20;;;12.10;;
38117;SDS011;23928;47.562;7.508;2022-11-14T09:17:07;20.10;;;11.80;;
38117;SDS011;23928;47.562;7.508;2022-11-14T09:19:32;22.57;;;13.07;;
38117;SDS011;23928;47.562;7.508;2022-11-14T09:21:58;19.70;;;12.70;;
38117;SDS011;23928;47.562;7.508;2022-11-14T09:24:23;19.90;;;12.33;;
38117;SDS011;23928;47.562;7.508;2022-11-14T09:26:50;23.67;;;13.23;;
38117;SDS011;23928;47.562;7.508;2022-11-14T09:29:16;24.43;;;13.83;;
38117;SDS011;23928;47.562;7.508;2022-11-14T09:31:42;21.97;;;13.37;;
38117;SDS011;23928;47.562;7.508;2022-11-14T09:34:08;22.67;;;13.70;;
38117;SDS011;23928;47.562;7.508;2022-11-14T09:36:34;23.43;;;13.37;;
38117;SDS011;23928;47.562;7.508;2022-11-14T09:39:00;19.33;;;12.37;;
38117;SDS011;23928;47.562;7.508;2022-11-14T09:41:26;20.30;;;13.77;;
38117;SDS011;23928;47.562;7.508;2022-11-14T09:44:16;19.67;;;12.77;;
38117;SDS011;23928;47.562;7.508;2022-11-14T09:47:07;23.33;;;13.80;;
38117;SDS011;23928;47.562;7.508;2022-11-14T09:49:36;21.33;;;13.77;;
38117;SDS011;23928;47.562;7.508;2022-11-14T09:52:08;21.40;;;13.40;;
38117;SDS011;23928;47.562;7.508;2022-11-14T09:57:41;20.30;;;12.57;;
38117;SDS011;23928;47.562;7.508;2022-11-14T10:00:11;16.47;;;11.47;;
38117;SDS011;23928;47.562;7.508;2022-11-14T10:02:45;24.07;;;12.73;;
38117;SDS011;23928;47.562;7.508;2022-11-14T10:11:06;23.80;;;12.40;;
38117;SDS011;23928;47.562;7.508;2022-11-14T10:13:49;17.30;;;11.57;;
38117;SDS011;23928;47.562;7.508;2022-11-14T10:16:18;16.23;;;10.30;;
38117;SDS011;23928;47.562;7.508;2022-11-14T10:24:50;20.50;;;11.03;;
38117;SDS011;23928;47.562;7.508;2022-11-14T10:27:32;20.70;;;11.77;;
38117;SDS011;23928;47.562;7.508;2022-11-14T10:30:04;16.33;;;11.70;;
38117;SDS011;23928;47.562;7.508;2022-11-14T10:33:45;17.40;;;11.33;;
38117;SDS011;23928;47.562;7.508;2022-11-14T10:36:06;20.47;;;12.07;;
38117;SDS011;23928;47.562;7.508;2022-11-14T10:38:38;20.37;;;11.63;;
38117;SDS011;23928;47.562;7.508;2022-11-14T10:41:12;18.10;;;10.97;;
38117;SDS011;23928;47.562;7.508;2022-11-14T10:46:06;19.17;;;11.57;;
38117;SDS011;23928;47.562;7.508;2022-11-14T10:48:40;19.50;;;12.20;;
38117;SDS011;23928;47.562;7.508;2022-11-14T10:53:55;19.53;;;11.93;;
38117;SDS011;23928;47.562;7.508;2022-11-14T10:56:44;18.27;;;11.17;;
38117;SDS011;23928;47.562;7.508;2022-11-14T10:59:11;16.13;;;11.47;;
38117;SDS011;23928;47.562;7.508;2022-11-14T11:04:20;19.60;;;12.03;;
38117;SDS011;23928;47.562;7.508;2022-11-14T11:06:50;22.17;;;12.17;;
38117;SDS011;23928;47.562;7.508;2022-11-14T11:09:19;15.60;;;10.90;;
38117;SDS011;23928;47.562;7.508;2022-11-14T11:12:13;17.00;;;10.93;;
38117;SDS011;23928;47.562;7.508;2022-11-14T11:14:40;15.13;;;10.27;;
38117;SDS011;23928;47.562;7.508;2022-11-14T11:17:13;17.97;;;10.43;;
38117;SDS011;23928;47.562;7.508;2022-11-14T11:19:43;14.83;;;10.33;;
38117;SDS011;23928;47.562;7.508;2022-11-14T11:25:23;11.03;;;8.67;;
38117;SDS011;23928;47.562;7.508;2022-11-14T11:28:04;14.40;;;8.23;;
38117;SDS011;23928;47.562;7.508;2022-11-14T11:31:26;13.47;;;9.17;;
38117;SDS011;23928;47.562;7.508;2022-11-14T11:33:29;11.80;;;8.33;;
38117;SDS011;23928;47.562;7.508;2022-11-14T11:36:16;10.90;;;7.97;;
38117;SDS011;23928;47.562;7.508;2022-11-14T11:38:44;11.97;;;8.00;;
38117;SDS011;23928;47.562;7.508;2022-11-14T11:41:19;12.03;;;7.47;;
38117;SDS011;23928;47.562;7.508;2022-11-14T11:43:53;10.63;;;6.97;;
38117;SDS011;23928;47.562;7.508;2022-11-14T11:46:40;10.90;;;7.37;;
38117;SDS011;23928;47.562;7.508;2022-11-14T11:51:43;12.03;;;7.60;;
38117;SDS011;23928;47.562;7.508;2022-11-14T11:56:50;8.83;;;6.43;;
38117;SDS011;23928;47.562;7.508;2022-11-14T11:59:28;11.63;;;6.80;;
38117;SDS011;23928;47.562;7.508;2022-11-14T12:02:12;10.43;;;6.80;;
38117;SDS011;23928;47.562;7.508;2022-11-14T12:04:47;13.27;;;6.47;;
38117;SDS011;23928;47.562;7.508;2022-11-14T12:07:17;11.00;;;6.63;;
38117;SDS011;23928;47.562;7.508;2022-11-14T12:09:45;11.53;;;6.63;;
38117;SDS011;23928;47.562;7.508;2022-11-14T12:12:21;11.80;;;7.43;;
38117;SDS011;23928;47.562;7.508;2022-11-14T12:18:01;10.67;;;6.17;;
38117;SDS011;23928;47.562;7.508;2022-11-14T12:20:51;11.13;;;6.50;;
38117;SDS011;23928;47.562;7.508;2022-11-14T12:31:45;10.07;;;6.63;;
38117;SDS011;23928;47.562;7.508;2022-11-14T12:36:46;12.07;;;6.57;;
38117;SDS011;23928;47.562;7.508;2022-11-14T12:39:24;11.03;;;6.60;;
38117;SDS011;23928;47.562;7.508;2022-11-14T12:42:04;9.00;;;6.63;;
38117;SDS011;23928;47.562;7.508;2022-11-14T12:55:51;11.67;;;5.90;;
38117;SDS011;23928;47.562;7.508;2022-11-14T13:00:18;9.57;;;6.40;;
38117;SDS011;23928;47.562;7.508;2022-11-14T13:02:49;11.30;;;6.77;;
38117;SDS011;23928;47.562;7.508;2022-11-14T13:06:15;12.47;;;6.70;;
38117;SDS011;23928;47.562;7.508;2022-11-14T13:14:19;9.83;;;6.60;;
38117;SDS011;23928;47.562;7.508;2022-11-14T13:33:45;10.10;;;6.00;;
38117;SDS011;23928;47.562;7.508;2022-11-14T13:38:59;11.10;;;6.00;;
38117;SDS011;23928;47.562;7.508;2022-11-14T13:42:18;12.03;;;6.57;;
38117;SDS011;23928;47.562;7.508;2022-11-14T13:45:03;11.47;;;6.30;;
38117;SDS011;23928;47.562;7.508;2022-11-14T13:50:14;11.23;;;6.97;;
38117;SDS011;23928;47.562;7.508;2022-11-14T13:52:46;11.30;;;7.37;;
38117;SDS011;23928;47.562;7.508;2022-11-14T13:55:20;11.90;;;6.90;;
38117;SDS011;23928;47.562;7.508;2022-11-14T14:00:56;12.47;;;7.13;;
38117;SDS011;23928;47.562;7.508;2022-11-14T14:11:53;13.90;;;8.40;;
38117;SDS011;23928;47.562;7.508;2022-11-14T14:17:28;15.13;;;8.23;;
38117;SDS011;23928;47.562;7.508;2022-11-14T14:23:05;12.03;;;7.70;;
38117;SDS011;23928;47.562;7.508;2022-11-14T14:25:36;17.13;;;8.07;;
38117;SDS011;23928;47.562;7.508;2022-11-14T14:33:27;12.97;;;8.27;;
38117;SDS011;23928;47.562;7.508;2022-11-14T14:35:54;12.27;;;8.37;;
38117;SDS011;23928;47.562;7.508;2022-11-14T14:38:28;14.57;;;7.67;;
38117;SDS011;23928;47.562;7.508;2022-11-14T14:40:54;12.50;;;7.33;;
38117;SDS011;23928;47.562;7.508;2022-11-14T14:45:57;15.57;;;8.20;;
38117;SDS011;23928;47.562;7.508;2022-11-14T14:48:26;14.60;;;7.57;;
38117;SDS011;23928;47.562;7.508;2022-11-14T14:50:55;12.73;;;7.10;;
38117;SDS011;23928;47.562;7.508;2022-11-14T14:58:26;13.40;;;7.10;;
38117;SDS011;23928;47.562;7.508;2022-11-14T15:03:25;13.93;;;7.40;;
38117;SDS011;23928;47.562;7.508;2022-11-14T15:06:00;12.47;;;7.47;;
38117;SDS011;23928;47.562;7.508;2022-11-14T15:08:28;13.20;;;7.73;;
38117;SDS011;23928;47.562;7.508;2022-11-14T15:10:57;12.93;;;7.17;;
38117;SDS011;23928;47.562;7.508;2022-11-14T15:13:24;13.17;;;7.87;;
38117;SDS011;23928;47.562;7.508;2022-11-14T15:15:52;11.83;;;7.10;;
38117;SDS011;23928;47.562;7.508;2022-11-14T15:18:22;11.97;;;6.83;;
38117;SDS011;23928;47.562;7.508;2022-11-14T15:21:07;11.60;;;7.57;;
38117;SDS011;23928;47.562;7.508;2022-11-14T15:23:58;14.83;;;8.00;;
38117;SDS011;23928;47.562;7.508;2022-11-14T15:26:24;13.13;;;8.57;;
38117;SDS011;23928;47.562;7.508;2022-11-14T15:28:50;16.77;;;8.03;;
38117;SDS011;23928;47.562;7.508;2022-11-14T15:31:17;11.80;;;8.10;;
38117;SDS011;23928;47.562;7.508;2022-11-14T15:33:44;10.27;;;7.23;;
38117;SDS011;23928;47.562;7.508;2022-11-14T15:36:12;14.57;;;8.17;;
38117;SDS011;23928;47.562;7.508;2022-11-14T15:38:56;13.97;;;7.50;;
38117;SDS011;23928;47.562;7.508;2022-11-14T15:41:23;12.47;;;7.77;;
38117;SDS011;23928;47.562;7.508;2022-11-14T15:43:52;14.33;;;8.53;;
38117;SDS011;23928;47.562;7.508;2022-11-14T15:51:39;11.93;;;8.43;;
38117;SDS011;23928;47.562;7.508;2022-11-14T15:54:17;11.77;;;8.43;;
38117;SDS011;23928;47.562;7.508;2022-11-14T15:56:47;13.00;;;8.27;;
38117;SDS011;23928;47.562;7.508;2022-11-14T15:59:14;11.40;;;8.10;;
38117;SDS011;23928;47.562;7.508;2022-11-14T16:01:39;13.07;;;8.93;;
38117;SDS011;23928;47.562;7.508;2022-11-14T16:04:11;16.60;;;8.23;;
38117;SDS011;23928;47.562;7.508;2022-11-14T16:06:42;14.60;;;8.17;;
38117;SDS011;23928;47.562;7.508;2022-11-14T16:09:17;13.23;;;7.10;;
38117;SDS011;23928;47.562;7.508;2022-11-14T16:11:45;12.20;;;8.00;;
38117;SDS011;23928;47.562;7.508;2022-11-14T16:14:11;10.63;;;6.57;;
38117;SDS011;23928;47.562;7.508;2022-11-14T16:16:37;11.37;;;6.07;;
38117;SDS011;23928;47.562;7.508;2022-11-14T16:19:02;9.43;;;6.60;;
38117;SDS011;23928;47.562;7.508;2022-11-14T16:21:29;11.20;;;6.83;;
38117;SDS011;23928;47.562;7.508;2022-11-14T16:23:55;11.17;;;6.30;;
38117;SDS011;23928;47.562;7.508;2022-11-14T16:26:21;8.57;;;6.10;;
38117;SDS011;23928;47.562;7.508;2022-11-14T16:28:49;10.30;;;6.80;;
38117;SDS011;23928;47.562;7.508;2022-11-14T16:31:15;8.50;;;5.70;;
38117;SDS011;23928;47.562;7.508;2022-11-14T16:33:41;11.63;;;7.60;;
38117;SDS011;23928;47.562;7.508;2022-11-14T16:36:09;13.03;;;8.03;;
38117;SDS011;23928;47.562;7.508;2022-11-14T16:38:35;16.50;;;8.67;;
38117;SDS011;23928;47.562;7.508;2022-11-14T16:41:04;16.07;;;8.60;;
38117;SDS011;23928;47.562;7.508;2022-11-14T16:43:31;13.23;;;8.10;;
38117;SDS011;23928;47.562;7.508;2022-11-14T16:45:56;11.67;;;7.97;;
38117;SDS011;23928;47.562;7.508;2022-11-14T16:48:22;13.17;;;7.90;;